Time;durP1;ratioP1;P1;durP2;ratioP2;P2;SDS_P1;SDS_P2;PMS_P1;PMS_P2;Temp;Humidity;BMP_temperature;BMP_pressure;BME280_temperature;BME280_humidity;BME280_pressure;Samples;Min_cycle;Max_cycle;Signal;HPM_P1;HPM_P2
2022/02/04 00:21:22;;;;;;;17.03;12.97;;;8.40;99.90;;;;;;5017878;28;39043;-83
2022/02/04 00:23:43;;;;;;;21.83;13.40;;;8.40;99.90;;;;;;5008621;28;49024;-82
2022/02/04 00:28:52;;;;;;;20.83;13.48;;;8.40;99.90;;;;;;5011538;28;39283;-82
2022/02/04 00:31:35;;;;;;;15.57;11.70;;;8.40;99.90;;;;;;4995564;28;38676;-82
2022/02/04 00:34:09;;;;;;;16.80;12.23;;;8.40;99.90;;;;;;5011691;28;37144;-83
2022/02/04 00:36:45;;;;;;;14.87;12.33;;;8.40;99.90;;;;;;4995674;28;47674;-82
2022/02/04 00:39:19;;;;;;;16.20;11.57;;;8.40;99.90;;;;;;5015024;28;38672;-82
2022/02/04 00:41:46;;;;;;;18.47;11.17;;;8.40;99.90;;;;;;5012401;28;39056;-82
2022/02/04 00:44:28;;;;;;;13.67;10.67;;;8.40;99.90;;;;;;4989542;28;36418;-82
2022/02/04 00:57:17;;;;;;;15.97;10.60;;;8.40;99.90;;;;;;5015231;28;39341;-82
2022/02/04 01:13:42;;;;;;;10.80;7.83;;;8.50;99.90;;;;;;4991945;28;48728;-83
2022/02/04 01:27:09;;;;;;;14.60;7.27;;;8.60;99.90;;;;;;4992138;28;39112;-82
2022/02/04 01:29:46;;;;;;;9.40;6.73;;;8.60;99.90;;;;;;4994909;28;36666;-82
2022/02/04 01:32:14;;;;;;;10.67;6.40;;;8.60;99.90;;;;;;4997543;28;37493;-82
2022/02/04 01:34:40;;;;;;;10.97;6.40;;;8.70;99.90;;;;;;4995535;28;36684;-82
2022/02/04 01:37:09;;;;;;;11.47;6.33;;;8.70;99.90;;;;;;4999527;28;38596;-82
2022/02/04 01:39:35;;;;;;;17.67;7.00;;;8.70;99.90;;;;;;4997372;28;38866;-83
2022/02/04 01:42:02;;;;;;;14.80;6.33;;;8.70;99.90;;;;;;4996148;28;39568;-80
2022/02/04 01:44:29;;;;;;;12.73;6.70;;;8.70;99.90;;;;;;4998770;28;38568;-82
2022/02/04 01:46:56;;;;;;;13.97;6.47;;;8.70;99.90;;;;;;4995327;28;36316;-82
2022/02/04 01:49:24;;;;;;;14.03;5.80;;;8.70;99.90;;;;;;5000573;28;39017;-82
2022/02/04 01:51:50;;;;;;;11.40;5.70;;;8.80;99.90;;;;;;5003532;28;38880;-82
2022/02/04 01:54:22;;;;;;;10.27;5.53;;;8.80;99.90;;;;;;5000719;28;38037;-82
2022/02/04 01:56:48;;;;;;;10.05;5.38;;;8.80;99.90;;;;;;5005938;28;37853;-82
2022/02/04 01:59:14;;;;;;;10.17;6.10;;;8.80;99.90;;;;;;5000429;28;37860;-82
2022/02/04 02:01:40;;;;;;;9.93;5.60;;;8.80;99.90;;;;;;5002527;28;38780;-82
2022/02/04 02:04:10;;;;;;;11.50;5.67;;;8.80;99.90;;;;;;5003224;28;38743;-82
2022/02/04 02:06:44;;;;;;;12.20;5.67;;;8.80;99.90;;;;;;4999009;28;38518;-82
2022/02/04 02:09:10;;;;;;;8.83;6.03;;;8.80;99.90;;;;;;4996965;28;39028;-82
2022/02/04 02:11:36;;;;;;;8.80;6.30;;;8.80;99.90;;;;;;4993465;28;37389;-82
2022/02/04 02:14:06;;;;;;;12.50;6.30;;;8.70;99.90;;;;;;4986691;28;37444;-81
2022/02/04 02:48:44;;;;;;;10.40;7.37;;;8.60;99.90;;;;;;4991884;28;49418;-82
2022/02/04 02:59:14;;;;;;;12.13;6.30;;;8.60;99.90;;;;;;4993754;28;37117;-82
2022/02/04 03:01:45;;;;;;;9.88;5.65;;;8.50;99.90;;;;;;4995718;28;39085;-82
2022/02/04 03:04:15;;;;;;;11.27;6.50;;;8.50;99.90;;;;;;4998152;28;38512;-83
2022/02/04 03:06:43;;;;;;;10.17;6.03;;;8.50;99.90;;;;;;4994050;28;38451;-82
2022/02/04 03:09:09;;;;;;;9.13;6.37;;;8.50;99.90;;;;;;4989495;28;36290;-82
2022/02/04 03:11:35;;;;;;;8.37;6.70;;;8.50;99.90;;;;;;4984076;28;38343;-82
2022/02/04 03:14:01;;;;;;;9.33;6.00;;;8.50;99.90;;;;;;4988182;28;37074;-82
2022/02/04 03:16:28;;;;;;;8.90;5.70;;;8.50;99.90;;;;;;4992721;28;48697;-82
2022/02/04 03:18:56;;;;;;;8.67;5.57;;;8.50;99.90;;;;;;4997690;28;37700;-83
2022/02/04 03:21:39;;;;;;;10.43;5.87;;;8.50;99.90;;;;;;5005529;28;39018;-82
2022/02/04 03:24:12;;;;;;;11.43;5.55;;;8.50;99.90;;;;;;4990901;28;38767;-82
2022/02/04 03:26:56;;;;;;;13.23;5.60;;;8.50;99.90;;;;;;4989412;28;36743;-82
2022/02/04 03:29:27;;;;;;;10.60;5.40;;;8.50;99.90;;;;;;4986143;28;37387;-82
2022/02/04 03:32:00;;;;;;;7.37;5.50;;;8.50;99.90;;;;;;4984558;28;39355;-82
2022/02/04 03:34:26;;;;;;;9.10;4.65;;;8.40;99.90;;;;;;5004127;28;37531;-82
2022/02/04 03:36:53;;;;;;;13.00;4.70;;;8.50;99.90;;;;;;4991763;28;38510;-82
2022/02/04 03:39:19;;;;;;;9.83;4.37;;;8.50;99.90;;;;;;4992047;28;37274;-82
2022/02/04 03:41:45;;;;;;;9.83;4.43;;;8.50;99.90;;;;;;4986070;28;39041;-82
2022/02/04 03:44:12;;;;;;;8.20;4.57;;;8.50;99.90;;;;;;4987214;28;37188;-83
2022/02/04 03:46:38;;;;;;;7.33;4.00;;;8.50;99.90;;;;;;4983124;28;37066;-82
2022/02/04 03:49:04;;;;;;;9.10;4.63;;;8.60;99.90;;;;;;4992763;28;35790;-82
2022/02/04 03:51:30;;;;;;;7.50;3.43;;;8.60;99.90;;;;;;4990499;28;37428;-82
2022/02/04 03:53:56;;;;;;;7.00;3.40;;;8.60;99.90;;;;;;5003283;28;37752;-81
2022/02/04 03:56:22;;;;;;;6.67;3.80;;;8.60;99.90;;;;;;4989823;28;37407;-83
2022/02/04 03:58:48;;;;;;;6.60;3.20;;;8.60;99.90;;;;;;4992808;28;36958;-82
2022/02/04 04:01:14;;;;;;;10.33;3.50;;;8.60;99.90;;;;;;5001626;28;37794;-82
2022/02/04 04:03:41;;;;;;;6.60;2.93;;;8.60;99.90;;;;;;4984085;28;38743;-82
2022/02/04 04:06:09;;;;;;;6.43;3.10;;;8.60;99.90;;;;;;4990553;28;38161;-82
2022/02/04 04:08:35;;;;;;;7.90;3.20;;;8.60;99.90;;;;;;4988607;28;36361;-82
2022/02/04 04:11:01;;;;;;;6.20;3.27;;;8.50;99.90;;;;;;4987624;28;39238;-82
2022/02/04 04:13:28;;;;;;;9.03;3.00;;;8.50;99.90;;;;;;5003510;28;39770;-82
2022/02/04 04:15:54;;;;;;;8.23;2.93;;;8.50;99.90;;;;;;5007465;28;39231;-82
2022/02/04 04:18:21;;;;;;;8.97;2.80;;;8.50;99.90;;;;;;4986837;28;37996;-82
2022/02/04 04:20:47;;;;;;;8.03;2.70;;;8.50;99.90;;;;;;4990673;28;39394;-83
2022/02/04 04:23:13;;;;;;;7.93;3.27;;;8.50;99.90;;;;;;5003567;28;37249;-82
2022/02/04 04:25:40;;;;;;;6.53;2.67;;;8.50;99.90;;;;;;4990220;28;38406;-82
2022/02/04 04:28:06;;;;;;;6.60;2.60;;;8.60;99.90;;;;;;4989447;28;37324;-81
2022/02/04 04:30:33;;;;;;;5.33;2.43;;;8.60;99.90;;;;;;4994002;28;39321;-82
2022/02/04 04:32:59;;;;;;;5.43;2.20;;;8.60;99.90;;;;;;4989823;28;38757;-81
2022/02/04 04:35:28;;;;;;;6.37;2.50;;;8.60;99.90;;;;;;4989399;28;36679;-82
2022/02/04 05:30:06;;;;;;;9.53;2.83;;;8.60;99.90;;;;;;4986777;28;38330;-81
2022/02/04 05:32:34;;;;;;;6.17;3.10;;;8.60;99.90;;;;;;4988365;28;36401;-82
2022/02/04 05:35:06;;;;;;;6.80;3.13;;;8.60;99.90;;;;;;4991913;28;38806;-83
2022/02/04 05:37:40;;;;;;;5.47;3.10;;;8.60;99.90;;;;;;4987807;28;48271;-81
2022/02/04 05:40:11;;;;;;;9.13;3.57;;;8.60;99.90;;;;;;4984352;28;38924;-81
2022/02/04 05:42:44;;;;;;;4.77;3.30;;;8.60;99.90;;;;;;4989142;28;36415;-82
2022/02/04 05:45:32;;;;;;;6.32;3.33;;;8.60;99.90;;;;;;5009445;28;39236;-82
2022/02/04 05:48:03;;;;;;;7.27;3.73;;;8.50;99.90;;;;;;5012266;28;37948;-83
2022/02/04 05:50:51;;;;;;;8.60;3.83;;;8.50;99.90;;;;;;5032800;23;47705;-83
2022/02/04 05:53:22;;;;;;;5.80;3.17;;;8.50;99.90;;;;;;5003788;28;37719;-82
2022/02/04 05:56:36;;;;;;;7.63;3.90;;;8.40;99.90;;;;;;5003406;28;38642;-83
2022/02/04 05:58:47;;;;;;;6.20;4.63;;;8.40;99.90;;;;;;4997080;28;49004;-82
2022/02/04 06:01:35;;;;;;;8.03;4.07;;;8.50;99.90;;;;;;5000346;28;37069;-82
2022/02/04 06:15:11;;;;;;;9.70;6.17;;;8.40;99.90;;;;;;4998869;28;38106;-82
2022/02/04 06:23:13;;;;;;;9.83;7.03;;;8.40;99.90;;;;;;5006812;28;40631;-82
2022/02/04 06:25:40;;;;;;;11.97;7.67;;;8.40;99.90;;;;;;4998719;28;35950;-83
2022/02/04 06:28:07;;;;;;;10.83;7.57;;;8.30;99.90;;;;;;4997677;28;37528;-81
2022/02/04 06:30:34;;;;;;;15.37;8.23;;;8.30;99.90;;;;;;4996905;28;39259;-83
2022/02/04 06:33:01;;;;;;;16.20;9.03;;;8.30;99.90;;;;;;5006164;28;37368;-83
2022/02/04 06:35:31;;;;;;;15.40;8.77;;;8.30;99.90;;;;;;5001424;28;47931;-82
2022/02/04 06:37:58;;;;;;;12.63;8.97;;;8.30;99.90;;;;;;4998752;28;38056;-82
2022/02/04 06:40:24;;;;;;;11.20;7.83;;;8.30;99.90;;;;;;5000124;28;37259;-83
2022/02/04 06:42:50;;;;;;;13.77;9.10;;;8.30;99.90;;;;;;4982933;28;37986;-82
2022/02/04 06:45:16;;;;;;;13.00;9.53;;;8.30;99.90;;;;;;4978939;28;38282;-82
2022/02/04 06:47:43;;;;;;;10.30;8.33;;;8.30;99.90;;;;;;4998825;28;37505;-82
2022/02/04 06:50:09;;;;;;;10.60;7.80;;;8.30;99.90;;;;;;5006805;28;38924;-82
2022/02/04 06:52:35;;;;;;;11.60;7.63;;;8.30;99.90;;;;;;5018953;28;38047;-83
2022/02/04 06:55:01;;;;;;;11.23;8.20;;;8.30;99.90;;;;;;5000325;28;35869;-82
2022/02/04 06:57:27;;;;;;;9.30;7.67;;;8.40;99.90;;;;;;4999677;28;47500;-82
2022/02/04 06:59:54;;;;;;;11.77;7.93;;;8.40;99.90;;;;;;5025870;28;38702;-82
2022/02/04 07:02:22;;;;;;;8.90;7.93;;;8.40;99.90;;;;;;5001111;28;38375;-83
2022/02/04 07:04:48;;;;;;;10.17;8.10;;;8.40;99.90;;;;;;5019804;28;37421;-82
2022/02/04 07:07:16;;;;;;;12.37;9.07;;;8.40;99.90;;;;;;4981813;28;37755;-82
2022/02/04 07:09:49;;;;;;;16.47;8.83;;;8.50;99.90;;;;;;5013314;28;37899;-82
2022/02/04 07:17:21;;;;;;;11.33;9.50;;;8.50;99.90;;;;;;5014003;28;38634;-82
2022/02/04 07:19:51;;;;;;;10.17;8.37;;;8.50;99.90;;;;;;5003629;28;37706;-81
2022/02/04 07:22:20;;;;;;;11.47;8.50;;;8.50;99.90;;;;;;4987079;28;38245;-82
2022/02/04 07:24:50;;;;;;;10.77;8.40;;;8.50;99.90;;;;;;4987907;28;36110;-82
2022/02/04 07:27:16;;;;;;;10.33;9.23;;;8.50;99.90;;;;;;4989833;28;39117;-81
2022/02/04 07:29:46;;;;;;;10.67;9.10;;;8.50;99.90;;;;;;5010095;28;38341;-82
2022/02/04 07:42:50;;;;;;;12.90;9.03;;;8.50;99.90;;;;;;5010948;28;39772;-83
2022/02/04 07:45:16;;;;;;;10.63;8.43;;;8.60;99.90;;;;;;5017294;28;38190;-82
2022/02/04 07:47:43;;;;;;;10.63;8.60;;;8.60;99.90;;;;;;5004804;28;37879;-83
2022/02/04 07:50:10;;;;;;;14.27;9.13;;;8.60;99.90;;;;;;5024910;28;38685;-81
2022/02/04 07:52:36;;;;;;;14.10;8.63;;;8.60;99.90;;;;;;5007392;28;39488;-82
2022/02/04 07:55:12;;;;;;;10.97;8.33;;;8.60;99.90;;;;;;4994812;28;36031;-82
2022/02/04 07:57:40;;;;;;;10.67;8.33;;;8.60;99.90;;;;;;5000746;28;49113;-80
2022/02/04 08:00:06;;;;;;;9.97;8.30;;;8.60;99.90;;;;;;5004611;28;37557;-80
2022/02/04 08:02:34;;;;;;;11.00;7.63;;;8.70;99.90;;;;;;5001235;28;48581;-80
2022/02/04 08:05:04;;;;;;;9.20;8.10;;;8.60;99.90;;;;;;5003924;28;36931;-80
2022/02/04 08:07:38;;;;;;;11.40;7.67;;;8.60;99.90;;;;;;4986692;28;47162;-81
2022/02/04 08:10:22;;;;;;;8.63;7.83;;;8.70;99.90;;;;;;4983253;28;37372;-80
2022/02/04 08:16:14;;;;;;;9.33;7.80;;;8.70;99.90;;;;;;5001931;28;49172;-82
2022/02/04 08:19:11;;;;;;;8.93;6.70;;;8.70;99.90;;;;;;5020207;28;49470;-84
2022/02/04 08:21:53;;;;;;;9.27;7.10;;;8.70;99.90;;;;;;5012640;28;48261;-83
2022/02/04 08:24:37;;;;;;;9.27;7.40;;;8.70;99.90;;;;;;5010619;28;36265;-82
2022/02/04 08:27:40;;;;;;;7.73;6.93;;;8.70;99.90;;;;;;4996953;28;37541;-83
2022/02/04 08:30:27;;;;;;;8.77;7.73;;;8.70;99.90;;;;;;5013044;28;38448;-83
2022/02/04 08:36:05;;;;;;;9.50;7.87;;;8.80;99.90;;;;;;5015529;28;49373;-82
2022/02/04 08:54:39;;;;;;;12.13;9.60;;;8.80;99.90;;;;;;5001554;28;49400;-83
2022/02/04 08:57:11;;;;;;;11.60;9.07;;;8.90;99.90;;;;;;4974471;28;37589;-84
2022/02/04 08:59:56;;;;;;;11.93;9.43;;;8.90;99.90;;;;;;4986806;28;37175;-83
2022/02/04 09:02:38;;;;;;;12.47;8.57;;;8.90;99.90;;;;;;4994423;28;39300;-81
2022/02/04 09:05:12;;;;;;;9.63;8.63;;;8.90;99.90;;;;;;4979930;28;37277;-82
2022/02/04 09:07:55;;;;;;;14.77;8.57;;;8.90;99.90;;;;;;4995186;28;20051;-83
2022/02/04 09:10:24;;;;;;;8.77;7.82;;;9.00;99.90;;;;;;4998443;28;37434;-83
2022/02/04 09:23:24;;;;;;;7.85;6.25;;;9.20;99.90;;;;;;4996789;28;40382;-84
2022/02/04 09:25:51;;;;;;;7.23;6.53;;;9.30;99.90;;;;;;4980310;28;39096;-84
2022/02/04 09:28:18;;;;;;;10.23;6.50;;;9.30;99.90;;;;;;4986979;28;36996;-83
2022/02/04 09:30:44;;;;;;;8.17;6.43;;;9.30;99.90;;;;;;4996231;28;37735;-82
2022/02/04 09:33:14;;;;;;;7.47;6.47;;;9.20;99.90;;;;;;4978559;28;37847;-82
2022/02/04 09:35:41;;;;;;;7.83;7.10;;;9.30;99.90;;;;;;4997266;28;39387;-83
2022/02/04 09:38:08;;;;;;;8.67;7.70;;;9.20;99.90;;;;;;5009257;28;39857;-83
2022/02/04 09:40:35;;;;;;;10.53;8.20;;;9.10;99.90;;;;;;5003192;28;35024;-84
2022/02/04 09:43:02;;;;;;;9.97;8.40;;;9.00;99.90;;;;;;4984470;28;38005;-84
2022/02/04 09:45:30;;;;;;;10.63;8.87;;;9.00;99.90;;;;;;4989126;28;39849;-83
2022/02/04 09:48:03;;;;;;;9.57;8.63;;;9.00;99.90;;;;;;5007179;28;38717;-83
2022/02/04 09:50:32;;;;;;;9.43;8.53;;;9.00;99.90;;;;;;4983291;28;47707;-83
2022/02/04 10:08:02;;;;;;;7.17;6.47;;;9.20;99.90;;;;;;4993921;28;38168;-83
2022/02/04 10:17:41;;;;;;;5.97;5.47;;;9.20;99.90;;;;;;4998467;28;39036;-84
2022/02/04 10:20:10;;;;;;;5.63;5.10;;;9.20;99.90;;;;;;4984195;28;37529;-83
2022/02/04 10:22:36;;;;;;;6.40;5.07;;;9.20;99.90;;;;;;4978960;28;38453;-83
2022/02/04 10:25:08;;;;;;;6.83;5.50;;;9.20;99.90;;;;;;4979896;28;39132;-82
2022/02/04 10:27:35;;;;;;;5.20;4.70;;;9.20;99.90;;;;;;4975547;28;47233;-83
2022/02/04 10:30:06;;;;;;;5.20;4.70;;;9.20;99.90;;;;;;4981020;28;36856;-80
2022/02/04 10:32:37;;;;;;;4.33;3.93;;;9.20;99.90;;;;;;4985482;28;47944;-83
2022/02/04 10:35:06;;;;;;;4.60;4.20;;;9.30;99.90;;;;;;4979379;28;38176;-83
2022/02/04 10:37:40;;;;;;;4.23;3.83;;;9.30;99.90;;;;;;4972869;28;48489;-83
2022/02/04 10:41:24;;;;;;;5.03;3.77;;;9.30;99.90;;;;;;4980948;28;38020;-83
2022/02/04 10:43:32;;;;;;;4.80;3.73;;;9.40;99.90;;;;;;4975436;28;38168;-84
2022/02/04 10:51:59;;;;;;;4.80;3.00;;;9.60;99.90;;;;;;4994628;28;38877;-83
2022/02/04 11:00:02;;;;;;;9.37;3.17;;;9.70;99.90;;;;;;4994726;28;48964;-83
2022/02/04 11:35:06;;;;;;;6.83;3.37;;;9.80;99.90;;;;;;4995949;28;38426;-83
2022/02/04 11:52:41;;;;;;;4.40;2.80;;;9.80;99.90;;;;;;4988156;28;39158;-82
2022/02/04 11:55:10;;;;;;;3.80;2.67;;;9.90;99.90;;;;;;4995450;28;39295;-83
2022/02/04 11:57:49;;;;;;;4.93;2.80;;;9.90;99.90;;;;;;4995483;28;39929;-83
2022/02/04 12:00:18;;;;;;;4.93;2.80;;;9.90;99.90;;;;;;4986907;28;37371;-84
2022/02/04 12:02:53;;;;;;;8.10;3.00;;;9.90;99.90;;;;;;4984492;28;40034;-82
2022/02/04 12:05:19;;;;;;;4.50;2.50;;;9.90;99.90;;;;;;4993034;28;38077;-81
2022/02/04 12:08:16;;;;;;;4.07;3.00;;;9.90;99.90;;;;;;4991148;28;38622;-81
2022/02/04 12:10:50;;;;;;;4.57;2.70;;;9.90;99.90;;;;;;4995803;28;47186;-81
2022/02/04 12:13:19;;;;;;;5.40;2.90;;;9.80;99.90;;;;;;4990552;28;38973;-83
2022/02/04 12:16:07;;;;;;;6.43;3.47;;;9.70;99.90;;;;;;4997463;28;38764;-84
2022/02/04 12:18:41;;;;;;;4.50;3.10;;;9.50;99.90;;;;;;4993684;28;47534;-82
2022/02/04 12:21:17;;;;;;;4.70;3.23;;;9.40;99.90;;;;;;5003681;28;37443;-84
2022/02/04 12:23:49;;;;;;;9.53;3.90;;;9.20;99.90;;;;;;5005966;28;40124;-82
2022/02/04 12:26:34;;;;;;;7.50;3.60;;;9.10;99.90;;;;;;5004489;28;38672;-84
2022/02/04 12:29:06;;;;;;;7.93;3.90;;;9.00;99.90;;;;;;5000671;28;38247;-82
2022/02/04 12:31:45;;;;;;;6.78;4.15;;;8.90;99.90;;;;;;5000565;28;48780;-83
2022/02/04 12:34:16;;;;;;;8.63;3.70;;;8.80;99.90;;;;;;5008747;28;39474;-83
2022/02/04 12:36:44;;;;;;;7.27;4.20;;;8.80;99.90;;;;;;4986106;28;39011;-83
2022/02/04 12:39:22;;;;;;;11.87;5.53;;;8.70;99.90;;;;;;5006613;28;37332;-83
2022/02/04 12:41:54;;;;;;;9.03;4.70;;;8.70;99.90;;;;;;5011990;28;37520;-83
2022/02/04 12:44:29;;;;;;;6.47;5.33;;;8.60;99.90;;;;;;5009066;28;39354;-83
2022/02/04 12:47:02;;;;;;;8.43;5.30;;;8.60;99.90;;;;;;5005247;28;38586;-83
2022/02/04 12:49:44;;;;;;;11.63;6.00;;;8.50;99.90;;;;;;5009897;28;48960;-83
2022/02/04 12:52:22;;;;;;;9.00;5.93;;;8.50;99.90;;;;;;5001886;28;36251;-82
2022/02/04 12:57:35;;;;;;;9.03;5.27;;;8.50;99.90;;;;;;5007084;28;49695;-83
2022/02/04 13:11:17;;;;;;;8.33;5.97;;;8.40;99.90;;;;;;4979545;28;49892;-84
2022/02/04 13:13:49;;;;;;;8.33;5.80;;;8.40;99.90;;;;;;5006154;28;37569;-83
2022/02/04 13:16:30;;;;;;;10.77;6.30;;;8.30;99.90;;;;;;5000548;28;39134;-82
2022/02/04 13:19:05;;;;;;;14.13;6.43;;;8.30;99.90;;;;;;5003526;28;38841;-83
2022/02/04 13:21:33;;;;;;;8.20;5.17;;;8.30;99.90;;;;;;5011050;28;48233;-83
2022/02/04 13:24:07;;;;;;;9.00;2.10;;;8.30;99.90;;;;;;4992823;28;36014;-80
2022/02/04 13:26:33;;;;;;;8.40;1.50;;;7.90;99.90;;;;;;4995977;28;47859;-81
2022/02/04 13:29:02;;;;;;;8.20;2.00;;;6.80;99.90;;;;;;5005343;28;39094;-83
2022/02/04 13:31:30;;;;;;;8.13;1.10;;;6.40;99.90;;;;;;5002519;28;38449;-83
2022/02/04 13:33:57;;;;;;;10.37;1.10;;;6.10;99.90;;;;;;4994074;28;36312;-83
2022/02/04 13:36:37;;;;;;;7.77;0.70;;;6.00;99.90;;;;;;5014253;28;38795;-81
2022/02/04 13:46:56;;;;;;;3.30;0.40;;;5.70;99.90;;;;;;5003497;28;40352;-81
2022/02/04 13:50:02;;;;;;;6.63;0.50;;;5.50;99.90;;;;;;5002335;28;37934;-82
2022/02/04 13:52:22;;;;;;;5.40;0.60;;;5.50;99.90;;;;;;5020184;28;38188;-83
2022/02/04 13:55:24;;;;;;;2.00;0.40;;;5.50;99.90;;;;;;5017801;28;39773;-81
2022/02/04 14:03:24;;;;;;;2.10;1.00;;;5.20;99.90;;;;;;5023891;28;37261;-80
2022/02/04 14:06:19;;;;;;;1.63;0.40;;;5.20;99.90;;;;;;5018224;28;38461;-82
2022/02/04 14:09:04;;;;;;;2.77;0.70;;;5.10;99.90;;;;;;4999633;28;48616;-82
2022/02/04 14:11:36;;;;;;;1.30;0.37;;;5.10;99.90;;;;;;5007787;28;49778;-81
2022/02/04 14:14:07;;;;;;;2.87;0.60;;;5.10;99.90;;;;;;4990111;28;36860;-82
2022/02/04 14:16:34;;;;;;;3.78;0.40;;;5.30;99.90;;;;;;5009274;28;48893;-81
2022/02/04 14:19:00;;;;;;;2.97;0.30;;;5.50;99.90;;;;;;5003026;28;37601;-82
2022/02/04 14:21:26;;;;;;;2.47;0.50;;;5.50;99.90;;;;;;5016347;28;38961;-80
2022/02/04 14:23:56;;;;;;;4.57;0.60;;;5.40;99.90;;;;;;5016908;28;38078;-80
2022/02/04 14:26:36;;;;;;;6.03;1.30;;;5.50;99.90;;;;;;5017954;28;37423;-81
2022/02/04 14:29:10;;;;;;;4.17;0.40;;;5.50;99.90;;;;;;5002011;28;38101;-82
2022/02/04 14:31:57;;;;;;;2.57;0.70;;;5.50;99.90;;;;;;5003385;28;46315;-82
2022/02/04 15:03:45;;;;;;;3.97;0.53;;;5.20;99.90;;;;;;5013084;28;39797;-81
2022/02/04 15:06:15;;;;;;;4.30;0.70;;;5.10;99.90;;;;;;5007448;28;37162;-81
2022/02/04 15:08:44;;;;;;;7.53;0.50;;;5.10;99.90;;;;;;5013218;28;39471;-80
2022/02/04 15:11:17;;;;;;;2.30;0.50;;;5.10;99.90;;;;;;4989877;28;39787;-81
2022/02/04 15:13:44;;;;;;;5.23;0.60;;;5.10;99.90;;;;;;5012524;28;39857;-80
2022/02/04 15:16:11;;;;;;;6.67;0.77;;;5.20;99.90;;;;;;5013693;28;39001;-81
2022/02/04 15:18:39;;;;;;;3.23;0.43;;;5.20;99.90;;;;;;5000625;28;37343;-80
2022/02/04 15:21:14;;;;;;;2.40;0.67;;;5.10;99.90;;;;;;5012285;28;38835;-81
2022/02/04 15:23:42;;;;;;;2.93;0.47;;;5.10;99.90;;;;;;5013693;28;39372;-80
2022/02/04 15:26:11;;;;;;;5.57;0.77;;;5.00;99.90;;;;;;4995235;28;36882;-80
2022/02/04 15:28:50;;;;;;;7.20;0.80;;;5.00;99.90;;;;;;4995428;28;35660;-79
2022/02/04 15:31:32;;;;;;;7.03;1.10;;;5.00;99.90;;;;;;5007695;28;39166;-80
2022/02/04 15:34:00;;;;;;;5.95;1.20;;;5.00;99.90;;;;;;4993568;28;37958;-80
2022/02/04 15:36:34;;;;;;;9.33;0.97;;;5.20;99.90;;;;;;4995638;28;37420;-81
2022/02/04 15:39:02;;;;;;;7.30;0.77;;;5.30;99.90;;;;;;4991201;28;36091;-81
2022/02/04 15:41:29;;;;;;;7.40;0.90;;;5.40;99.90;;;;;;5014353;28;48712;-81
2022/02/04 15:44:05;;;;;;;4.67;1.20;;;5.40;99.90;;;;;;5013368;28;38445;-82
2022/02/04 15:54:34;;;;;;;6.47;1.83;;;5.50;99.90;;;;;;5010363;28;38534;-83
2022/02/04 15:57:29;;;;;;;6.23;1.33;;;5.60;99.90;;;;;;5009070;28;39108;-81
2022/02/04 16:05:02;;;;;;;8.67;1.37;;;5.00;99.90;;;;;;5016485;28;39352;-82
2022/02/04 16:07:28;;;;;;;7.40;1.30;;;4.90;99.90;;;;;;5007502;28;48686;-81
2022/02/04 16:10:02;;;;;;;9.60;1.80;;;4.90;99.90;;;;;;5005232;28;38360;-80
2022/02/04 16:12:37;;;;;;;14.60;2.50;;;4.90;99.90;;;;;;4989372;28;47335;-80
2022/02/04 16:15:18;;;;;;;15.40;2.07;;;5.00;99.90;;;;;;5010847;28;39105;-79
2022/02/04 16:17:53;;;;;;;10.83;2.97;;;5.10;99.90;;;;;;5005227;28;48508;-80
2022/02/04 16:20:27;;;;;;;16.50;2.63;;;5.20;99.90;;;;;;5012336;28;36802;-79
2022/02/04 16:22:59;;;;;;;13.50;2.60;;;5.30;99.90;;;;;;4987935;28;40365;-79
2022/02/04 16:30:58;;;;;;;16.73;2.40;;;5.50;99.90;;;;;;5006578;28;38086;-81
2022/02/04 16:33:25;;;;;;;9.60;1.93;;;5.50;99.90;;;;;;5006898;28;39484;-80
2022/02/04 16:35:51;;;;;;;12.83;2.27;;;5.60;99.90;;;;;;5002900;28;38372;-80
2022/02/04 16:38:19;;;;;;;13.53;2.53;;;5.60;99.90;;;;;;5008028;28;38522;-81
2022/02/04 16:40:46;;;;;;;13.33;1.70;;;5.60;99.90;;;;;;4987018;28;36694;-81
2022/02/04 16:43:15;;;;;;;10.00;2.10;;;5.60;99.90;;;;;;5008083;28;39855;-81
2022/02/04 16:45:41;;;;;;;12.60;1.83;;;5.70;99.90;;;;;;4989476;28;37840;-81
2022/02/04 16:48:08;;;;;;;12.00;2.30;;;5.60;99.90;;;;;;4984342;28;37578;-80
2022/02/04 16:50:34;;;;;;;13.37;2.40;;;5.60;99.90;;;;;;5004415;28;37303;-80
2022/02/04 16:53:00;;;;;;;9.03;1.97;;;5.60;99.90;;;;;;5007768;28;38566;-81
2022/02/04 16:55:26;;;;;;;12.60;2.60;;;5.70;99.90;;;;;;5001085;28;38546;-81
2022/02/04 16:57:54;;;;;;;10.37;2.80;;;5.70;99.90;;;;;;5005265;28;38015;-80
2022/02/04 17:00:22;;;;;;;10.03;2.33;;;5.70;99.90;;;;;;5007327;28;37452;-80
2022/02/04 17:02:50;;;;;;;15.17;3.20;;;5.60;99.90;;;;;;5004953;28;39849;-83
2022/02/04 17:05:18;;;;;;;13.17;2.17;;;5.60;99.90;;;;;;4991894;28;37691;-82
2022/02/04 17:07:52;;;;;;;16.67;2.67;;;5.60;99.90;;;;;;5009231;28;40994;-82
2022/02/04 17:10:26;;;;;;;11.93;2.47;;;5.60;99.90;;;;;;5010011;28;36186;-83
2022/02/04 17:12:59;;;;;;;9.70;3.00;;;5.70;99.90;;;;;;4991563;28;37576;-80
2022/02/04 17:15:30;;;;;;;16.33;3.58;;;5.70;99.90;;;;;;5004933;28;38308;-82
2022/02/04 17:17:59;;;;;;;12.20;3.23;;;5.70;99.90;;;;;;5008888;28;38924;-81
2022/02/04 17:20:26;;;;;;;13.37;3.60;;;5.80;99.90;;;;;;5007862;28;37271;-81
2022/02/04 17:22:53;;;;;;;16.20;4.07;;;5.80;99.90;;;;;;5009442;28;38703;-81
2022/02/04 17:25:29;;;;;;;10.80;4.00;;;5.80;99.90;;;;;;4995102;28;37363;-81
2022/02/04 17:27:57;;;;;;;11.23;3.70;;;5.80;99.90;;;;;;5007043;28;39940;-81
2022/02/04 17:30:24;;;;;;;16.03;4.17;;;5.80;99.90;;;;;;4992684;28;36817;-81
2022/02/04 17:32:51;;;;;;;12.40;5.40;;;5.90;99.90;;;;;;5010902;28;38919;-80
2022/02/04 17:35:20;;;;;;;10.40;4.00;;;5.90;99.90;;;;;;5010308;28;38344;-83
2022/02/04 17:37:47;;;;;;;11.93;3.67;;;6.00;99.90;;;;;;4977684;28;38818;-82
2022/02/04 17:40:15;;;;;;;19.37;5.63;;;6.00;99.90;;;;;;4985882;28;37393;-83
2022/02/04 17:42:43;;;;;;;18.87;4.30;;;6.10;99.90;;;;;;4990113;28;38504;-81
2022/02/04 17:45:14;;;;;;;14.60;3.90;;;6.10;99.90;;;;;;4992939;28;39091;-83
2022/02/04 17:47:40;;;;;;;13.83;4.50;;;6.10;99.90;;;;;;5002247;28;37934;-80
2022/02/04 17:50:17;;;;;;;14.43;4.00;;;6.10;99.90;;;;;;4991502;28;37413;-79
2022/02/04 17:52:49;;;;;;;14.33;3.20;;;6.10;99.90;;;;;;4973667;28;38092;-83
2022/02/04 17:55:21;;;;;;;13.55;3.40;;;6.20;99.90;;;;;;4972025;28;38882;-80
2022/02/04 17:57:55;;;;;;;12.43;4.20;;;6.40;99.90;;;;;;4964759;28;37326;-81
2022/02/04 18:03:02;;;;;;;11.27;3.43;;;6.50;99.90;;;;;;4990629;28;39072;-83
2022/02/04 18:08:04;;;;;;;17.93;3.53;;;6.40;99.90;;;;;;4982707;28;38348;-83
2022/02/04 18:10:30;;;;;;;20.33;3.43;;;6.50;99.90;;;;;;4974539;28;36214;-81
2022/02/04 18:12:56;;;;;;;11.20;3.60;;;6.40;99.90;;;;;;4997806;28;39632;-82
2022/02/04 18:15:22;;;;;;;15.40;3.17;;;6.50;99.90;;;;;;4962087;28;38430;-82
2022/02/04 18:17:49;;;;;;;11.57;3.23;;;6.50;99.90;;;;;;4965008;28;39467;-83
2022/02/04 18:20:15;;;;;;;12.00;3.83;;;6.50;99.90;;;;;;5000066;28;37413;-83
2022/02/04 18:22:44;;;;;;;16.37;3.47;;;6.40;99.90;;;;;;4989298;28;40779;-82
2022/02/04 18:25:10;;;;;;;10.87;2.87;;;6.50;99.90;;;;;;4976212;28;39795;-82
2022/02/04 18:27:36;;;;;;;11.23;3.00;;;6.40;99.90;;;;;;4974655;28;38972;-82
2022/02/04 18:30:06;;;;;;;11.73;3.53;;;6.50;99.90;;;;;;4973895;28;36415;-82
2022/02/04 18:32:35;;;;;;;13.23;2.70;;;6.50;99.90;;;;;;4994753;28;48444;-82
2022/02/04 18:35:02;;;;;;;12.27;2.57;;;6.50;99.90;;;;;;4990414;28;38078;-81
2022/02/04 18:37:35;;;;;;;13.33;2.87;;;6.50;99.90;;;;;;4987534;28;48965;-82
2022/02/04 18:40:31;;;;;;;11.37;2.83;;;6.50;99.90;;;;;;4992502;28;37742;-82
2022/02/04 18:45:33;;;;;;;12.00;2.93;;;6.60;99.90;;;;;;4983643;28;49821;-82
2022/02/04 18:48:04;;;;;;;10.37;2.60;;;6.70;99.90;;;;;;4973200;28;38186;-82
2022/02/04 18:58:33;;;;;;;16.93;3.37;;;6.70;99.90;;;;;;4983763;28;49150;-82
2022/02/04 19:01:00;;;;;;;11.77;2.60;;;6.70;99.90;;;;;;4984961;28;37322;-82
2022/02/04 19:03:33;;;;;;;9.00;2.30;;;6.70;99.90;;;;;;4983052;28;38991;-82
2022/02/04 19:08:43;;;;;;;15.97;2.47;;;6.70;99.90;;;;;;4990549;28;50509;-83
2022/02/04 19:11:10;;;;;;;;;;;6.80;99.90;;;;;;4981082;28;36125;-82
2022/02/04 19:13:48;;;;;;;12.10;1.67;;;6.70;99.90;;;;;;4982400;28;37754;-82
2022/02/04 19:16:35;;;;;;;11.00;2.40;;;6.50;99.90;;;;;;5000457;28;37558;-83
2022/02/04 19:19:20;;;;;;;13.40;2.40;;;6.40;99.90;;;;;;4986885;28;38165;-82
2022/02/04 19:24:23;;;;;;;13.83;3.93;;;6.20;99.90;;;;;;4990047;28;40134;-83
2022/02/04 19:26:50;;;;;;;11.80;2.20;;;6.10;99.90;;;;;;4991858;28;39131;-81
2022/02/04 19:29:16;;;;;;;15.67;2.97;;;6.10;99.90;;;;;;4988660;28;37959;-82
2022/02/04 19:31:54;;;;;;;17.77;2.67;;;6.10;99.90;;;;;;4991603;28;37339;-80
2022/02/04 19:34:25;;;;;;;18.40;3.07;;;6.10;99.90;;;;;;4988303;28;38782;-82
2022/02/04 19:36:56;;;;;;;15.37;2.23;;;6.30;99.90;;;;;;4984104;28;38988;-82
2022/02/04 19:39:24;;;;;;;12.73;2.27;;;6.30;99.90;;;;;;4986959;28;37470;-82
2022/02/04 19:42:22;;;;;;;14.47;2.23;;;6.30;99.90;;;;;;4993672;28;37717;-81
2022/02/04 19:44:40;;;;;;;10.70;2.20;;;6.30;99.90;;;;;;4991713;28;48306;-83
2022/02/04 19:47:12;;;;;;;13.47;2.00;;;6.30;99.90;;;;;;4991603;28;39880;-81